x

Ilm3 - 27 Miles Se Of Wrightsville Beach, Nc (41037) Weather Station

7:08 - Mon 25th Jul 2016 All times are EDT. -4 hours from GMT.

  • Wind
    11mph, 16mph gusts
  • Sea Temp 84°f
  • Ar Temp 84°f
  • Sea Pressure 1018.7mb
  • Ilm3 - 27 Miles Se Of Wrightsville Beach, Nc
  • Ilm3 - 27 Miles Se Of Wrightsville Beach, Nc

More Historic Weather Station data

Upgrade to MSW Pro to gain access to the past 30 days of data for over 8000 Wavebouys and Weather Stations around the globe.

Join Pro

Comparision Forecast

View Surf forecast
   
Seg 07/25 7:08 11 16 mph 1018.7mb 84f 84f
6:08 11 16 mph 1018.4mb 84f 84f
5:08 11 16 mph 1017.6mb 84f 84f
4:08 13 16 mph 1017.5mb 85f 84f
3:08 13 18 mph 1017.8mb 85f 84f
2:08 13 16 mph 1017.9mb 85f 84f
1:08 13 18 mph 1017.8mb 85f 84f
12:08 13 16 mph 1018mb 85f 84f
Dom 07/24 11:08 13 18 mph 1018.2mb 85f 84f
10:08 13 18 mph 1017.8mb 85f 84f
9:08 13 18 mph 1017.4mb 85f 84f
8:08 13 16 mph 1016.9mb 85f 84f
7:08 11 16 mph 1017mb 85f 85f
6:08 13 16 mph 1016.9mb 85f 85f
5:08 11 13 mph 1016.9mb 85f 85f
4:08 11 16 mph 1017mb 85f 85f
3:08 11 13 mph 1017.6mb 85f 86f
2:08 9 13 mph 1017.9mb 85f 85f
1:08 9 13 mph 1017.8mb 85f 85f
12:08 11 13 mph 1017.9mb 85f 85f
11:08 11 13 mph 1017.8mb 85f 85f
10:08 11 13 mph 1017.4mb 85f 85f
9:08 9 11 mph 1017.5mb 84f 85f
8:08 9 11 mph 1017.1mb 84f 85f
7:08 11 13 mph 1016.5mb 84f 84f
6:08 11 13 mph 1016.5mb 84f 84f
5:08 9 13 mph 1016.5mb 84f 84f
4:08 11 16 mph 1016.5mb 84f 84f
3:08 13 16 mph 1016.8mb 85f 84f
2:08 11 16 mph 1016.7mb 85f 84f
1:08 13 18 mph 1016.5mb 85f 84f
12:08 13 16 mph 1016.6mb 85f 84f
Sáb 07/23 11:08 11 16 mph 1016.4mb 85f 84f
10:08 11 13 mph 1016.3mb 85f 84f
9:08 9 11 mph 1015.9mb 85f 84f
8:08 13 16 mph 1015.6mb 85f 84f
7:08 11 13 mph 1015.4mb 85f 84f
6:08 11 16 mph 1015.3mb 85f 84f
5:08 13 16 mph 1015.8mb 85f 84f
4:08 9 13 mph 1015.8mb 85f 84f
3:08 7 11 mph 1016.2mb 85f 84f
2:08 7 9 mph 1016.6mb 85f 84f
1:08 9 13 mph 1016.8mb 85f 83f
12:08 11 13 mph 1017.1mb 85f 83f
11:08 7 11 mph 1017.5mb 85f 83f
10:08 11 13 mph 1017.1mb 84f 83f
9:08 9 11 mph 1016.8mb 84f 85f
7:08 9 11 mph 1016.5mb 84f 84f
6:08 9 11 mph 1016.4mb 84f 84f
5:08 9 13 mph 1016.1mb 85f 84f
4:08 9 13 mph 1016.3mb 85f 84f
3:08 11 13 mph 1016.7mb 85f 84f
2:08 11 16 mph 1016.7mb 85f 83f
1:08 13 16 mph 1016.8mb 85f 83f
12:08 13 18 mph 1016.9mb 85f 83f
Sex 07/22 11:08 11 16 mph 1017.2mb 85f 83f
10:08 11 13 mph 1017.3mb 85f 83f
9:08 9 11 mph 1017mb 85f 83f
8:08 7 11 mph 1016.9mb 85f 83f
7:08 4 7 mph 1016.6mb 85f 84f
6:08 4 7 mph 1016.9mb 86f 84f
5:08 4 9 mph 1017.8mb 86f 84f
4:08 4 7 mph 1018.5mb 86f 84f
3:08 4 7 mph 1019.3mb 86f 84f
2:08 4 7 mph 1019.7mb 85f 84f
1:08 4 7 mph 1019.9mb 85f 84f
12:08 7 9 mph 1019.8mb 85f 83f
11:08 2 7 mph 1020.2mb 85f 83f
10:08 4 9 mph 1019.5mb 84f 83f
9:08 7 11 mph 1019.3mb 84f 83f
8:08 7 11 mph 1018.9mb 84f 81f
7:08 4 7 mph 1018.7mb 84f 82f
6:08 2 7 mph 1018.6mb 84f 79f
5:08 2 4 mph 1018.8mb 84f 79f
4:08 2
mph
1018.6mb 84f 79f
3:08 2
mph
1018.8mb 84f 80f
2:08 2 7 mph 1019mb 84f 80f
1:08 2 7 mph 1019.8mb 84f 81f
12:08 2 4 mph 1020mb 85f 81f
Qui 07/21 11:08 4 7 mph 1020.4mb 85f 81f
10:08 4 9 mph 1020.2mb 85f 81f
9:08 7 9 mph 1019.6mb 85f 81f
8:08 7 11 mph 1018.9mb 84f 82f
7:08 9 13 mph 1019.1mb 85f 82f
6:08 7 11 mph 1018.9mb 85f 82f
5:08 7 9 mph 1019.7mb 85f 83f
4:08 7 11 mph 1019.7mb 85f 83f
3:08 7 9 mph 1020.3mb 85f 82f
2:08 7 11 mph 1021.5mb 85f 82f
1:08 9 11 mph 1021.4mb 85f 82f
12:08 9 11 mph 1021.3mb 84f 82f